createdAt,value
2019-05-18T00:01:31.767Z,71.30
2019-05-18T00:03:35.464Z,71.10
2019-05-18T00:05:39.194Z,70.90
2019-05-18T00:07:43.126Z,70.70
2019-05-18T00:09:46.826Z,70.50
2019-05-18T00:11:50.593Z,70.10
2019-05-18T00:13:54.283Z,71.10
2019-05-18T00:15:58.041Z,70.70
2019-05-18T00:18:01.948Z,70.40
2019-05-18T00:20:06.339Z,70.70
2019-05-18T00:22:10.124Z,71.10
2019-05-18T00:24:13.788Z,70.90
2019-05-18T00:26:17.444Z,71.30
2019-05-18T00:28:21.141Z,71.80
2019-05-18T00:30:24.874Z,71.50
2019-05-18T00:32:28.531Z,71.10
2019-05-18T00:34:32.323Z,71.80
2019-05-18T00:36:35.986Z,72.10
2019-05-18T00:38:39.671Z,72.70
2019-05-18T00:40:43.430Z,73.20
2019-05-18T00:42:47.087Z,73.20
2019-05-18T00:44:50.760Z,73.50
2019-05-18T00:46:54.601Z,72.30
2019-05-18T00:48:58.284Z,72.50
2019-05-18T00:51:01.950Z,72.10
2019-05-18T00:53:05.638Z,72.90
2019-05-18T00:55:09.526Z,73.40
2019-05-18T00:57:13.185Z,73.30
2019-05-18T00:59:16.991Z,73.70
2019-05-18T01:01:20.666Z,75.50
2019-05-18T01:03:24.366Z,75.40
2019-05-18T01:05:28.057Z,75.60
2019-05-18T01:07:31.732Z,75.10
2019-05-18T01:09:35.427Z,75.20
2019-05-18T01:11:39.258Z,75.80
2019-05-18T01:13:42.944Z,75.40
2019-05-18T01:15:46.599Z,76.00
2019-05-18T01:17:57.240Z,76.40
2019-05-18T01:19:55.664Z,76.20
2019-05-18T01:21:59.487Z,76.60
2019-05-18T01:24:03.200Z,77.00
2019-05-18T01:26:06.981Z,78.20
2019-05-18T01:28:10.649Z,79.50
2019-05-18T01:30:14.948Z,79.00
2019-05-18T01:32:18.602Z,78.50
2019-05-18T01:34:22.286Z,78.40
2019-05-18T01:36:26.050Z,80.50
2019-05-18T01:38:29.715Z,81.60
2019-05-18T01:40:33.439Z,81.60
2019-05-18T01:42:37.097Z,82.10
2019-05-18T01:44:40.795Z,81.80
2019-05-18T01:46:44.474Z,82.00
2019-05-18T01:48:48.226Z,84.40
2019-05-18T01:50:51.906Z,84.30
2019-05-18T01:52:55.586Z,84.40
2019-05-18T01:54:59.348Z,83.30
2019-05-18T01:57:03.043Z,84.30
2019-05-18T01:59:06.707Z,82.90
2019-05-18T02:01:10.387Z,82.00
2019-05-18T02:03:14.054Z,81.20
2019-05-18T02:05:17.890Z,81.20
2019-05-18T02:07:21.606Z,82.10
2019-05-18T02:09:25.299Z,81.50
2019-05-18T02:11:28.983Z,80.90
2019-05-18T02:13:32.651Z,80.90
2019-05-18T02:15:36.315Z,81.00
2019-05-18T02:17:39.999Z,80.80
2019-05-18T02:19:43.786Z,80.40
2019-05-18T02:21:47.460Z,80.20
2019-05-18T02:23:51.134Z,80.00
2019-05-18T02:25:54.829Z,79.70
2019-05-18T02:27:58.485Z,80.20
2019-05-18T02:30:02.182Z,79.80
2019-05-18T02:32:05.864Z,79.10
2019-05-18T02:34:09.540Z,79.30
2019-05-18T02:36:13.204Z,79.80
2019-05-18T02:38:17.194Z,79.20
2019-05-18T02:40:20.841Z,78.90
2019-05-18T02:42:24.527Z,78.50
2019-05-18T02:44:28.192Z,78.60
2019-05-18T02:46:31.855Z,78.30
2019-05-18T02:48:48.400Z,78.00
2019-05-18T02:50:41.008Z,78.00
2019-05-18T02:52:44.708Z,78.20
2019-05-18T02:54:48.432Z,78.10
2019-05-18T02:56:52.110Z,78.10
2019-05-18T02:58:55.866Z,78.00
2019-05-18T03:00:59.549Z,78.00
2019-05-18T03:03:03.358Z,78.40
2019-05-18T03:05:07.563Z,78.30
2019-05-18T03:07:11.224Z,78.40
2019-05-18T03:09:14.904Z,78.40
2019-05-18T03:11:18.576Z,78.70
2019-05-18T03:13:22.295Z,78.80
2019-05-18T03:15:25.984Z,78.80
2019-05-18T03:17:29.679Z,78.90
2019-05-18T03:19:33.500Z,80.40
2019-05-18T03:21:37.157Z,79.80
2019-05-18T03:23:40.850Z,79.70
2019-05-18T03:25:44.563Z,79.60
2019-05-18T03:27:48.280Z,79.20
2019-05-18T03:29:51.964Z,79.50
2019-05-18T03:31:55.837Z,80.10
2019-05-18T03:33:59.595Z,80.40
2019-05-18T03:36:03.287Z,80.50
2019-05-18T03:38:06.982Z,80.80
2019-05-18T03:40:10.870Z,80.40
2019-05-18T03:42:14.547Z,79.60
2019-05-18T03:44:18.357Z,79.30
2019-05-18T03:46:24.025Z,79.50
2019-05-18T03:48:27.414Z,79.60
2019-05-18T03:50:31.095Z,79.60
2019-05-18T03:52:34.763Z,79.70
2019-05-18T03:54:38.457Z,79.90
2019-05-18T03:56:42.152Z,79.70
2019-05-18T03:58:45.817Z,79.90
2019-05-18T04:00:49.511Z,80.20
2019-05-18T04:02:53.181Z,79.80
2019-05-18T04:04:56.876Z,79.60
2019-05-18T04:07:00.566Z,79.90
2019-05-18T04:09:05.520Z,80.50
2019-05-18T04:11:09.236Z,80.40
2019-05-18T04:13:12.893Z,80.40
2019-05-18T04:15:16.678Z,80.40
2019-05-18T04:17:20.428Z,80.90
2019-05-18T04:19:24.125Z,80.10
2019-05-18T04:21:27.781Z,80.10
2019-05-18T04:23:31.434Z,80.60
2019-05-18T04:25:35.158Z,80.00
2019-05-18T04:27:38.891Z,80.00
2019-05-18T04:29:43.317Z,79.80
2019-05-18T04:31:47.048Z,79.50
2019-05-18T04:33:50.709Z,79.50
2019-05-18T04:35:54.392Z,79.20
2019-05-18T04:37:58.051Z,79.10
2019-05-18T04:40:01.745Z,79.20
2019-05-18T04:42:05.461Z,79.50
2019-05-18T04:44:09.122Z,79.30
2019-05-18T04:46:12.813Z,79.10
2019-05-18T04:48:16.499Z,79.40
2019-05-18T04:50:20.545Z,79.40
2019-05-18T04:52:24.279Z,79.70
2019-05-18T04:54:28.036Z,79.90
2019-05-18T04:56:31.784Z,81.10
2019-05-18T04:58:35.450Z,80.80
2019-05-18T05:00:39.122Z,81.10
2019-05-18T05:02:42.791Z,81.00
2019-05-18T05:04:46.532Z,80.80
2019-05-18T05:06:50.257Z,81.00
2019-05-18T05:08:53.977Z,81.20
2019-05-18T05:10:58.478Z,81.00
2019-05-18T05:13:02.173Z,81.10
2019-05-18T05:15:06.059Z,81.20
2019-05-18T05:17:09.866Z,81.50
2019-05-18T05:19:13.535Z,81.60
2019-05-18T05:21:17.230Z,81.90
2019-05-18T05:23:20.918Z,81.90
2019-05-18T05:25:24.630Z,82.10
2019-05-18T05:27:28.372Z,82.80
2019-05-18T05:29:32.024Z,82.80
2019-05-18T05:31:35.682Z,82.60
2019-05-18T05:33:39.384Z,84.60
2019-05-18T05:35:43.054Z,86.50
2019-05-18T05:37:46.851Z,89.60
2019-05-18T05:39:50.538Z,89.60
2019-05-18T05:41:54.270Z,89.10
2019-05-18T05:43:58.052Z,87.70
2019-05-18T05:46:01.715Z,87.30
2019-05-18T05:48:05.482Z,86.90
2019-05-18T05:50:09.855Z,89.00
2019-05-18T05:52:13.542Z,91.10
2019-05-18T05:54:17.344Z,90.20
2019-05-18T05:56:21.022Z,90.10
2019-05-18T05:58:24.733Z,89.10
2019-05-18T06:00:28.401Z,87.50
2019-05-18T06:02:32.156Z,87.00
2019-05-18T06:04:35.851Z,91.00
2019-05-18T06:06:39.507Z,91.30
2019-05-18T06:08:43.237Z,90.10
2019-05-18T06:10:46.905Z,88.60
2019-05-18T06:12:50.608Z,87.80
2019-05-18T06:14:54.339Z,90.20
2019-05-18T06:16:57.996Z,91.00
2019-05-18T06:19:02.236Z,90.50
2019-05-18T06:21:05.902Z,91.20
2019-05-18T06:23:09.548Z,91.30
2019-05-18T06:25:13.250Z,89.20
2019-05-18T06:27:17.193Z,87.60
2019-05-18T06:29:20.904Z,86.70
2019-05-18T06:31:24.580Z,86.00
2019-05-18T06:33:28.235Z,87.50
2019-05-18T06:35:32.025Z,86.20
2019-05-18T06:37:35.708Z,84.50
2019-05-18T06:39:39.399Z,83.00
2019-05-18T06:41:43.191Z,82.80
2019-05-18T06:43:46.885Z,82.70
2019-05-18T06:45:50.634Z,84.00
2019-05-18T06:47:54.437Z,85.40
2019-05-18T06:49:58.187Z,83.50
2019-05-18T06:52:02.311Z,81.60
2019-05-18T06:54:05.958Z,81.10
2019-05-18T06:56:10.414Z,80.10
2019-05-18T06:58:14.776Z,80.10
2019-05-18T07:00:18.736Z,80.00
2019-05-18T07:02:22.406Z,80.50
2019-05-18T07:04:26.070Z,79.40
2019-05-18T07:06:29.764Z,79.80
2019-05-18T07:08:33.438Z,79.30
2019-05-18T07:10:37.292Z,79.50
2019-05-18T07:12:41.023Z,80.40
2019-05-18T07:14:44.679Z,79.10
2019-05-18T07:16:48.379Z,79.50
2019-05-18T07:18:52.136Z,79.30
2019-05-18T07:20:55.844Z,78.40
2019-05-18T07:22:59.522Z,78.40
2019-05-18T07:25:03.262Z,78.50
2019-05-18T07:27:06.957Z,79.60
2019-05-18T07:29:10.686Z,78.70
2019-05-18T07:31:14.403Z,78.10
2019-05-18T07:33:18.161Z,78.00
2019-05-18T07:35:21.872Z,76.80
2019-05-18T07:37:25.616Z,76.30
2019-05-18T07:39:29.352Z,77.40
2019-05-18T07:41:45.880Z,77.20
2019-05-18T07:43:38.671Z,77.00
2019-05-18T07:45:42.326Z,77.60
2019-05-18T07:47:46.117Z,76.10
2019-05-18T07:49:49.788Z,76.40
2019-05-18T07:51:53.488Z,78.40
2019-05-18T07:53:57.167Z,80.00
2019-05-18T07:56:00.835Z,79.30
2019-05-18T07:58:04.537Z,80.30
2019-05-18T08:00:08.513Z,79.50
2019-05-18T08:02:12.185Z,78.00
2019-05-18T08:04:15.903Z,76.60
2019-05-18T08:06:19.619Z,76.00
2019-05-18T08:08:23.459Z,75.10
2019-05-18T08:10:37.437Z,75.20
2019-05-18T08:12:41.164Z,74.70
2019-05-18T08:14:44.835Z,75.60
2019-05-18T08:16:48.513Z,74.60
2019-05-18T08:18:52.228Z,73.60
2019-05-18T08:20:55.892Z,73.00
2019-05-18T08:22:59.756Z,73.00
2019-05-18T08:25:03.930Z,73.10
2019-05-18T08:27:07.604Z,73.20
2019-05-18T08:29:11.400Z,74.30
2019-05-18T08:31:15.084Z,73.90
2019-05-18T08:33:18.795Z,74.30
2019-05-18T08:35:22.470Z,73.20
2019-05-18T08:37:26.141Z,73.90
2019-05-18T08:39:29.860Z,75.00
2019-05-18T08:41:33.726Z,74.70
2019-05-18T08:43:37.414Z,74.20
2019-05-18T08:45:41.179Z,74.80
2019-05-18T08:47:44.834Z,73.70
2019-05-18T08:49:48.548Z,73.70
2019-05-18T08:52:00.084Z,73.20
2019-05-18T08:53:57.650Z,73.30
2019-05-18T08:56:01.422Z,74.00
2019-05-18T08:58:05.174Z,74.40
2019-05-18T09:00:09.172Z,74.30
2019-05-18T09:02:12.829Z,73.50
2019-05-18T09:04:16.534Z,72.90
2019-05-18T09:06:20.207Z,72.30
2019-05-18T09:08:23.867Z,71.20
2019-05-18T09:10:27.558Z,70.20
2019-05-18T09:12:31.257Z,69.50
2019-05-18T09:14:35.049Z,69.30
2019-05-18T09:16:38.710Z,69.50
2019-05-18T09:18:42.417Z,67.70
2019-05-18T09:20:46.511Z,69.00
2019-05-18T09:22:50.198Z,68.20
2019-05-18T09:24:53.903Z,68.20
2019-05-18T09:26:57.695Z,67.60
2019-05-18T09:29:01.520Z,66.00
2019-05-18T09:31:05.278Z,65.90
2019-05-18T09:33:08.946Z,65.90
2019-05-18T09:35:12.746Z,65.70
2019-05-18T09:37:16.491Z,66.00
2019-05-18T09:39:20.152Z,66.60
2019-05-18T09:41:23.843Z,66.10
2019-05-18T09:43:27.507Z,66.70
2019-05-18T09:45:31.259Z,66.10
2019-05-18T09:47:35.028Z,66.40
2019-05-18T09:49:38.790Z,67.10
2019-05-18T09:51:42.495Z,66.40
2019-05-18T09:53:51.501Z,67.30
2019-05-18T09:55:51.582Z,65.50
2019-05-18T09:57:55.266Z,67.20
2019-05-18T09:59:58.963Z,66.30
2019-05-18T10:02:02.719Z,65.90
2019-05-18T10:04:06.384Z,66.50
2019-05-18T10:06:10.105Z,65.40
2019-05-18T10:08:13.787Z,66.10
2019-05-18T10:10:17.514Z,64.60
2019-05-18T10:12:21.206Z,66.60
2019-05-18T10:14:24.910Z,67.70
2019-05-18T10:16:28.596Z,66.60
2019-05-18T10:18:32.251Z,67.70
2019-05-18T10:20:36.004Z,66.90
2019-05-18T10:22:53.575Z,65.60
2019-05-18T10:24:45.063Z,64.50
2019-05-18T10:26:48.763Z,64.90
2019-05-18T10:28:52.534Z,63.80
2019-05-18T10:30:56.222Z,64.30
2019-05-18T10:32:59.923Z,65.50
2019-05-18T10:35:04.188Z,64.90
2019-05-18T10:37:07.911Z,64.80
2019-05-18T10:39:11.679Z,63.80
2019-05-18T10:41:15.329Z,64.70
2019-05-18T10:43:19.145Z,64.90
2019-05-18T10:45:22.901Z,63.20
2019-05-18T10:47:26.582Z,64.60
2019-05-18T10:49:30.265Z,64.70
2019-05-18T10:51:34.030Z,64.30
2019-05-18T10:53:37.712Z,64.30
2019-05-18T10:55:41.365Z,63.80
2019-05-18T10:57:45.054Z,63.00
2019-05-18T10:59:48.812Z,62.50
2019-05-18T11:01:52.602Z,62.90
2019-05-18T11:03:56.371Z,63.90
2019-05-18T11:06:00.039Z,62.90
2019-05-18T11:08:03.977Z,62.80
2019-05-18T11:10:09.402Z,62.10
2019-05-18T11:12:13.092Z,62.60
2019-05-18T11:14:18.852Z,62.70
2019-05-18T11:16:22.171Z,63.50
2019-05-18T11:18:25.964Z,63.30
2019-05-18T11:20:29.739Z,64.70
2019-05-18T11:22:33.412Z,65.70
2019-05-18T11:24:37.095Z,65.40
2019-05-18T11:26:40.883Z,65.30
2019-05-18T11:28:44.667Z,66.20
2019-05-18T11:30:48.330Z,65.10
2019-05-18T11:32:52.036Z,64.60
2019-05-18T11:34:55.742Z,64.30
2019-05-18T11:37:02.990Z,64.80
2019-05-18T11:39:06.583Z,66.50
2019-05-18T11:41:10.370Z,66.60
2019-05-18T11:43:14.011Z,66.30
2019-05-18T11:45:18.403Z,66.40
2019-05-18T11:47:22.066Z,64.40
2019-05-18T11:49:28.950Z,64.50
2019-05-18T11:51:31.248Z,64.50
2019-05-18T11:53:34.907Z,65.20
2019-05-18T11:55:38.605Z,65.40
2019-05-18T11:57:42.359Z,65.00
2019-05-18T11:59:46.051Z,64.90
2019-05-18T12:01:49.713Z,63.80
2019-05-18T12:03:53.434Z,64.70
2019-05-18T12:05:57.130Z,65.90
2019-05-18T12:08:00.794Z,65.10
2019-05-18T12:10:07.759Z,64.30
2019-05-18T12:12:11.475Z,64.30
2019-05-18T12:14:15.150Z,64.10
2019-05-18T12:16:18.837Z,64.60
2019-05-18T12:18:22.526Z,67.00
2019-05-18T12:20:26.217Z,65.80
2019-05-18T12:22:29.894Z,64.10
2019-05-18T12:24:33.571Z,64.40
2019-05-18T12:26:37.335Z,63.90
2019-05-18T12:28:40.989Z,63.60
2019-05-18T12:30:44.689Z,62.30
2019-05-18T12:32:48.454Z,61.20
2019-05-18T12:34:52.139Z,60.60
2019-05-18T12:36:55.838Z,61.80
2019-05-18T12:38:59.574Z,61.20
2019-05-18T12:41:03.331Z,59.50
2019-05-18T12:43:07.031Z,57.90
2019-05-18T12:45:11.004Z,58.30
2019-05-18T12:47:14.750Z,57.40
2019-05-18T12:49:18.421Z,57.00
2019-05-18T12:51:22.128Z,56.70
2019-05-18T12:53:25.810Z,54.60
2019-05-18T12:55:30.053Z,52.80
2019-05-18T12:57:33.746Z,57.70
2019-05-18T12:59:37.407Z,59.50
2019-05-18T13:01:41.315Z,61.40
2019-05-18T13:03:44.994Z,64.30
2019-05-18T13:05:48.643Z,65.00
2019-05-18T13:07:52.364Z,65.00
2019-05-18T13:09:56.147Z,64.80
2019-05-18T13:11:59.910Z,64.70
2019-05-18T13:14:03.581Z,64.40
2019-05-18T13:16:07.302Z,64.40
2019-05-18T13:18:11.190Z,62.70
2019-05-18T13:20:15.180Z,62.70
2019-05-18T13:22:18.870Z,63.60
2019-05-18T13:24:22.565Z,64.70
2019-05-18T13:26:26.252Z,64.00
2019-05-18T13:28:29.954Z,63.70
2019-05-18T13:30:33.629Z,63.40
2019-05-18T13:32:37.316Z,62.40
2019-05-18T13:34:41.052Z,62.20
2019-05-18T13:36:44.789Z,62.60
2019-05-18T13:38:48.458Z,61.80
2019-05-18T13:40:52.149Z,61.00
2019-05-18T13:42:55.825Z,60.90
2019-05-18T13:44:59.500Z,59.50
2019-05-18T13:47:03.187Z,58.00
2019-05-18T13:49:06.907Z,58.60
2019-05-18T13:51:10.573Z,58.30
2019-05-18T13:53:14.375Z,58.10
2019-05-18T13:55:18.026Z,58.60
2019-05-18T13:57:21.731Z,57.90
2019-05-18T13:59:25.376Z,58.10
2019-05-18T14:01:29.040Z,56.90
2019-05-18T14:03:32.766Z,56.80
2019-05-18T14:05:36.462Z,56.60
2019-05-18T14:07:40.378Z,56.30
2019-05-18T14:09:44.036Z,56.60
2019-05-18T14:11:47.808Z,56.80
2019-05-18T14:13:51.559Z,56.80
2019-05-18T14:15:55.319Z,56.80
2019-05-18T14:17:59.102Z,58.10
2019-05-18T14:20:02.774Z,57.10
2019-05-18T14:22:06.437Z,57.20
2019-05-18T14:24:10.251Z,58.50
2019-05-18T14:26:15.535Z,58.50
2019-05-18T14:28:19.218Z,59.00
2019-05-18T14:30:23.671Z,59.10
2019-05-18T14:32:27.339Z,57.80
2019-05-18T14:34:31.133Z,56.80
2019-05-18T14:36:34.800Z,56.60
2019-05-18T14:38:38.582Z,56.70
2019-05-18T14:40:42.322Z,56.10
2019-05-18T14:42:45.988Z,56.00
2019-05-18T14:44:49.671Z,55.60
2019-05-18T14:46:53.353Z,56.50
2019-05-18T14:48:57.042Z,56.30
2019-05-18T14:51:00.818Z,56.10
2019-05-18T14:53:04.582Z,55.70
2019-05-18T14:55:08.552Z,56.50
2019-05-18T14:57:12.247Z,56.50
2019-05-18T14:59:16.056Z,57.80
2019-05-18T15:01:19.782Z,57.50
2019-05-18T15:03:23.468Z,58.50
2019-05-18T15:05:27.456Z,59.00
2019-05-18T15:07:31.130Z,58.20
2019-05-18T15:09:34.861Z,58.20
2019-05-18T15:11:38.521Z,58.60
2019-05-18T15:13:42.210Z,58.50
2019-05-18T15:15:45.897Z,61.20
2019-05-18T15:17:49.562Z,64.80
2019-05-18T15:19:53.348Z,64.80
2019-05-18T15:21:57.081Z,64.90
2019-05-18T15:24:00.754Z,65.80
2019-05-18T15:26:04.460Z,65.20
2019-05-18T15:28:08.166Z,65.40
2019-05-18T15:30:12.171Z,66.70
2019-05-18T15:32:15.873Z,65.80
2019-05-18T15:34:19.547Z,65.00
2019-05-18T15:36:23.239Z,64.60
2019-05-18T15:38:26.911Z,64.30
2019-05-18T15:40:30.612Z,64.70
2019-05-18T15:42:34.253Z,65.20
2019-05-18T15:44:37.918Z,64.80
2019-05-18T15:46:41.715Z,65.10
2019-05-18T15:48:45.575Z,65.90
2019-05-18T15:50:49.483Z,65.70
2019-05-18T15:52:53.185Z,66.50
2019-05-18T15:54:56.852Z,67.60
2019-05-18T15:57:00.532Z,68.10
2019-05-18T15:59:04.209Z,73.80
2019-05-18T16:01:07.875Z,75.50
2019-05-18T16:03:11.570Z,74.40
2019-05-18T16:05:15.422Z,73.00
2019-05-18T16:07:19.218Z,72.30
2019-05-18T16:09:22.876Z,71.80
2019-05-18T16:11:26.720Z,70.70
2019-05-18T16:13:30.401Z,70.40
2019-05-18T16:15:34.145Z,68.50
2019-05-18T16:17:39.965Z,65.90
2019-05-18T16:19:43.377Z,59.80
2019-05-18T16:21:47.054Z,60.00
2019-05-18T16:23:50.721Z,61.30
2019-05-18T16:25:54.451Z,66.90
2019-05-18T16:27:58.150Z,72.70
2019-05-18T16:30:01.849Z,74.30
2019-05-18T16:32:05.616Z,77.50
2019-05-18T16:34:09.275Z,76.90
2019-05-18T16:36:13.056Z,82.70
2019-05-18T16:38:16.756Z,84.10
2019-05-18T16:40:20.627Z,84.40
2019-05-18T16:42:24.448Z,88.20
2019-05-18T16:44:28.101Z,89.50
2019-05-18T16:46:31.778Z,89.40
2019-05-18T16:48:38.852Z,87.70
2019-05-18T16:50:40.855Z,88.70
2019-05-18T16:52:44.548Z,88.60
2019-05-18T16:54:48.229Z,87.40
2019-05-18T16:56:51.901Z,85.80
2019-05-18T16:58:55.594Z,86.80
2019-05-18T17:00:59.295Z,88.30
2019-05-18T17:03:03.030Z,86.90
2019-05-18T17:05:08.274Z,87.00
2019-05-18T17:07:11.931Z,90.50
2019-05-18T17:09:15.886Z,91.80
2019-05-18T17:11:19.725Z,91.90
2019-05-18T17:13:23.508Z,92.50
2019-05-18T17:15:27.220Z,93.50
2019-05-18T17:17:30.891Z,93.60
2019-05-18T17:19:34.567Z,94.40
2019-05-18T17:21:38.248Z,95.10
2019-05-18T17:23:42.008Z,95.70
2019-05-18T17:25:45.671Z,95.70
2019-05-18T17:27:49.493Z,95.70
2019-05-18T17:29:53.187Z,95.30
2019-05-18T17:31:56.861Z,95.40
2019-05-18T17:34:00.526Z,94.90
2019-05-18T17:36:04.202Z,94.00
2019-05-18T17:38:07.864Z,94.80
2019-05-18T17:40:11.878Z,93.80
2019-05-18T17:42:15.553Z,92.90
2019-05-18T17:44:19.256Z,93.00
2019-05-18T17:46:22.917Z,93.70
2019-05-18T17:48:27.081Z,92.70
2019-05-18T17:50:30.785Z,92.60
2019-05-18T17:52:34.444Z,93.20
2019-05-18T17:54:38.150Z,93.80
2019-05-18T17:56:41.823Z,93.10
2019-05-18T17:58:45.579Z,92.00
2019-05-18T18:00:49.264Z,93.00
2019-05-18T18:02:52.931Z,93.00
2019-05-18T18:04:56.614Z,93.20
2019-05-18T18:07:00.279Z,92.10
2019-05-18T18:09:05.405Z,92.20
2019-05-18T18:11:11.804Z,92.20
2019-05-18T18:13:14.514Z,93.30
2019-05-18T18:15:18.306Z,93.10
2019-05-18T18:17:21.975Z,92.30
2019-05-18T18:19:25.641Z,92.10
2019-05-18T18:21:29.345Z,91.30
2019-05-18T18:23:33.068Z,91.60
2019-05-18T18:25:36.779Z,91.70
2019-05-18T18:27:40.432Z,91.20
2019-05-18T18:29:44.107Z,91.50
2019-05-18T18:31:47.790Z,92.40
2019-05-18T18:33:51.471Z,92.20
2019-05-18T18:35:55.181Z,92.60
2019-05-18T18:37:58.972Z,93.20
2019-05-18T18:40:02.698Z,92.80
2019-05-18T18:42:06.371Z,92.80
2019-05-18T18:44:10.076Z,93.00
2019-05-18T18:46:13.776Z,93.00
2019-05-18T18:48:17.450Z,92.70
2019-05-18T18:50:21.102Z,91.90
2019-05-18T18:52:24.846Z,91.10
2019-05-18T18:54:28.528Z,90.70
2019-05-18T18:56:32.314Z,90.30
2019-05-18T18:58:35.986Z,91.60
2019-05-18T19:00:39.647Z,91.40
2019-05-18T19:02:43.355Z,90.90
2019-05-18T19:04:47.022Z,91.50
2019-05-18T19:06:50.913Z,92.60
2019-05-18T19:08:54.587Z,92.70
2019-05-18T19:10:58.300Z,93.20
2019-05-18T19:13:01.996Z,92.50
2019-05-18T19:15:08.831Z,92.80
2019-05-18T19:17:12.555Z,92.50
2019-05-18T19:19:16.300Z,93.20
2019-05-18T19:21:19.979Z,93.50
2019-05-18T19:23:23.680Z,93.60
2019-05-18T19:25:27.369Z,93.20
2019-05-18T19:27:31.119Z,93.20
2019-05-18T19:29:34.783Z,92.80
2019-05-18T19:31:38.490Z,92.40
2019-05-18T19:33:42.399Z,93.00
2019-05-18T19:35:46.058Z,92.20
2019-05-18T19:37:49.752Z,92.50
2019-05-18T19:39:53.429Z,92.10
2019-05-18T19:41:57.104Z,91.90
2019-05-18T19:44:00.811Z,92.40
2019-05-18T19:46:04.467Z,91.60
2019-05-18T19:48:08.159Z,91.50
2019-05-18T19:50:12.036Z,91.70
2019-05-18T19:52:15.686Z,91.50
2019-05-18T19:54:19.360Z,91.80
2019-05-18T19:56:23.031Z,91.20
2019-05-18T19:58:26.741Z,91.30
2019-05-18T20:00:30.402Z,91.00
2019-05-18T20:02:34.150Z,91.50
2019-05-18T20:04:37.902Z,91.10
2019-05-18T20:06:41.603Z,91.80
2019-05-18T20:08:45.291Z,91.30
2019-05-18T20:10:48.948Z,91.10
2019-05-18T20:12:52.615Z,90.60
2019-05-18T20:14:56.318Z,90.80
2019-05-18T20:17:00.035Z,90.70
2019-05-18T20:19:04.114Z,91.30
2019-05-18T20:21:07.759Z,91.30
2019-05-18T20:23:11.453Z,92.60
2019-05-18T20:25:15.263Z,92.80
2019-05-18T20:27:18.931Z,93.90
2019-05-18T20:29:22.638Z,94.20
2019-05-18T20:31:26.319Z,93.90
2019-05-18T20:33:29.998Z,93.60
2019-05-18T20:35:33.775Z,93.10
2019-05-18T20:37:37.451Z,93.50
2019-05-18T20:39:41.848Z,93.60
2019-05-18T20:41:45.513Z,92.90
2019-05-18T20:43:49.197Z,92.90
2019-05-18T20:45:52.876Z,93.80
2019-05-18T20:47:56.553Z,93.50
2019-05-18T20:50:00.226Z,93.70
2019-05-18T20:52:03.990Z,93.00
2019-05-18T20:54:07.663Z,92.80
2019-05-18T20:56:11.361Z,93.10
2019-05-18T20:58:15.032Z,93.80
2019-05-18T21:00:18.796Z,93.80
2019-05-18T21:02:22.466Z,94.30
2019-05-18T21:04:26.151Z,95.10
2019-05-18T21:06:29.927Z,94.70
2019-05-18T21:08:33.613Z,94.70
2019-05-18T21:10:37.292Z,95.20
2019-05-18T21:12:41.203Z,95.50
2019-05-18T21:14:44.866Z,96.20
2019-05-18T21:16:48.551Z,96.90
2019-05-18T21:18:52.241Z,96.70
2019-05-18T21:20:56.005Z,96.80
2019-05-18T21:22:59.667Z,96.30
2019-05-18T21:25:03.339Z,95.90
2019-05-18T21:27:07.043Z,95.80
2019-05-18T21:29:10.743Z,96.60
2019-05-18T21:31:14.444Z,96.80
2019-05-18T21:33:18.120Z,97.00
2019-05-18T21:35:21.802Z,97.10
2019-05-18T21:37:25.623Z,97.20
2019-05-18T21:39:29.304Z,97.00
2019-05-18T21:41:33.023Z,96.50
2019-05-18T21:43:36.676Z,97.10
2019-05-18T21:45:40.355Z,96.70
2019-05-18T21:47:44.037Z,95.70
2019-05-18T21:49:47.786Z,95.40
2019-05-18T21:51:51.500Z,95.60
2019-05-18T21:53:55.188Z,95.20
2019-05-18T21:55:59.035Z,94.90
2019-05-18T21:58:02.714Z,95.10
2019-05-18T22:00:07.383Z,94.40
2019-05-18T22:02:11.078Z,95.00
2019-05-18T22:04:14.737Z,94.00
2019-05-18T22:06:18.440Z,94.20
2019-05-18T22:08:22.108Z,93.80
2019-05-18T22:10:26.290Z,94.40
2019-05-18T22:12:30.073Z,94.20
2019-05-18T22:14:33.743Z,93.70
2019-05-18T22:16:37.528Z,94.10
2019-05-18T22:18:41.174Z,94.60
2019-05-18T22:20:44.876Z,95.80
2019-05-18T22:22:48.744Z,95.80
2019-05-18T22:24:52.410Z,96.20
2019-05-18T22:26:56.115Z,96.00
2019-05-18T22:28:59.802Z,96.30
2019-05-18T22:31:03.560Z,96.90
2019-05-18T22:33:07.340Z,96.60
2019-05-18T22:35:11.130Z,96.70
2019-05-18T22:37:15.034Z,96.00
2019-05-18T22:39:18.817Z,95.60
2019-05-18T22:41:22.547Z,96.30
2019-05-18T22:43:26.995Z,95.80
2019-05-18T22:45:30.698Z,95.70
2019-05-18T22:47:34.444Z,95.30
2019-05-18T22:49:38.110Z,95.50
2019-05-18T22:51:41.847Z,95.20
2019-05-18T22:53:46.662Z,94.60
2019-05-18T22:55:50.406Z,94.90
2019-05-18T22:57:54.164Z,94.50
2019-05-18T22:59:57.892Z,94.80
2019-05-18T23:02:01.556Z,94.60
2019-05-18T23:04:05.455Z,94.30
2019-05-18T23:06:09.127Z,93.80
2019-05-18T23:08:12.838Z,93.30
2019-05-18T23:10:16.492Z,92.80
2019-05-18T23:12:20.158Z,93.10
2019-05-18T23:14:23.906Z,93.70
2019-05-18T23:16:27.565Z,93.40
2019-05-18T23:18:31.259Z,93.00
2019-05-18T23:20:34.917Z,92.60
2019-05-18T23:22:38.746Z,92.50
2019-05-18T23:24:42.422Z,92.30
2019-05-18T23:26:46.090Z,92.30
2019-05-18T23:28:49.776Z,92.30
2019-05-18T23:30:53.451Z,92.10
2019-05-18T23:32:57.102Z,92.00
2019-05-18T23:35:00.823Z,92.20
2019-05-18T23:37:04.563Z,92.60
2019-05-18T23:39:08.257Z,92.30
2019-05-18T23:41:12.010Z,92.40
2019-05-18T23:43:15.672Z,92.50
2019-05-18T23:45:19.350Z,92.50
2019-05-18T23:47:23.005Z,93.60
2019-05-18T23:49:26.756Z,93.70
2019-05-18T23:51:30.458Z,93.30
2019-05-18T23:53:34.167Z,94.00
2019-05-18T23:55:37.996Z,93.50
2019-05-18T23:57:41.666Z,93.20
2019-05-18T23:59:45.383Z,93.30
